createdAt,value
2022-11-16T00:01:31.361Z,72.61
2022-11-16T00:04:04.669Z,73.20
2022-11-16T00:06:37.681Z,72.77
2022-11-16T00:09:26.897Z,72.82
2022-11-16T00:12:01.287Z,72.83
2022-11-16T00:14:36.429Z,73.52
2022-11-16T00:17:10.665Z,73.46
2022-11-16T00:19:43.495Z,73.34
2022-11-16T00:22:16.291Z,73.17
2022-11-16T00:24:49.333Z,72.92
2022-11-16T00:27:22.142Z,73.48
2022-11-16T00:29:54.999Z,73.41
2022-11-16T00:32:29.790Z,72.70
2022-11-16T00:35:02.613Z,73.09
2022-11-16T00:37:35.434Z,73.06
2022-11-16T00:40:09.672Z,73.41
2022-11-16T00:42:42.452Z,73.46
2022-11-16T00:45:15.403Z,73.38
2022-11-16T00:47:49.609Z,73.59
2022-11-16T00:50:22.466Z,73.11
2022-11-16T00:52:55.248Z,73.26
2022-11-16T00:55:28.070Z,72.95
2022-11-16T00:58:01.321Z,73.06
2022-11-16T01:00:34.172Z,73.50
2022-11-16T01:03:08.491Z,73.16
2022-11-16T01:05:44.946Z,73.17
2022-11-16T01:08:19.012Z,73.59
2022-11-16T01:10:52.821Z,73.75
2022-11-16T01:13:25.314Z,73.48
2022-11-16T01:15:58.154Z,73.61
2022-11-16T01:18:32.663Z,73.58
2022-11-16T01:21:07.735Z,73.73
2022-11-16T01:23:40.554Z,73.77
2022-11-16T01:26:14.242Z,73.62
2022-11-16T01:28:47.512Z,73.69
2022-11-16T01:31:20.821Z,73.28
2022-11-16T01:33:55.588Z,73.33
2022-11-16T01:36:28.456Z,73.53
2022-11-16T01:39:01.338Z,73.72
2022-11-16T01:41:34.717Z,73.63
2022-11-16T01:44:23.804Z,73.51
2022-11-16T01:46:56.589Z,73.22
2022-11-16T01:49:32.974Z,73.90
2022-11-16T01:52:11.413Z,73.78
2022-11-16T01:54:47.886Z,73.72
2022-11-16T01:57:25.961Z,73.93
2022-11-16T02:00:03.207Z,73.78
2022-11-16T02:02:36.240Z,73.76
2022-11-16T02:05:13.542Z,73.96
2022-11-16T02:08:22.103Z,73.82
2022-11-16T02:11:07.952Z,74.41
2022-11-16T02:13:54.362Z,73.80
2022-11-16T02:16:36.309Z,74.03
2022-11-16T02:19:27.560Z,74.03
2022-11-16T02:22:14.882Z,74.41
2022-11-16T02:25:01.211Z,74.56
2022-11-16T02:28:05.608Z,74.27
2022-11-16T02:30:45.788Z,74.07
2022-11-16T02:33:22.269Z,74.26
2022-11-16T02:35:58.150Z,74.33
2022-11-16T02:38:35.503Z,74.62
2022-11-16T02:41:13.573Z,74.53
2022-11-16T02:43:50.045Z,74.86
2022-11-16T02:46:29.516Z,75.00
2022-11-16T02:49:05.433Z,75.00
2022-11-16T02:51:40.876Z,75.37
2022-11-16T02:54:18.072Z,75.37
2022-11-16T02:56:56.530Z,74.88
2022-11-16T02:59:34.605Z,74.69
2022-11-16T03:02:22.012Z,75.27
2022-11-16T03:05:01.885Z,74.63
2022-11-16T03:07:39.325Z,75.11
2022-11-16T03:10:33.245Z,74.87
2022-11-16T03:13:06.971Z,74.62
2022-11-16T03:15:42.583Z,75.10
2022-11-16T03:18:19.384Z,75.19
2022-11-16T03:20:55.715Z,75.12
2022-11-16T03:23:29.286Z,74.93
2022-11-16T03:26:08.411Z,74.69
2022-11-16T03:28:48.621Z,74.72
2022-11-16T03:31:27.921Z,74.55
2022-11-16T03:34:08.156Z,74.53
2022-11-16T03:36:44.318Z,74.23
2022-11-16T03:39:22.367Z,74.70
2022-11-16T03:41:57.557Z,74.82
2022-11-16T03:44:31.619Z,74.59
2022-11-16T03:47:04.716Z,74.96
2022-11-16T03:49:38.881Z,74.70
2022-11-16T03:52:11.806Z,74.94
2022-11-16T03:54:44.952Z,75.00
2022-11-16T03:57:18.734Z,74.94
2022-11-16T03:59:51.564Z,74.72
2022-11-16T04:02:24.367Z,74.99
2022-11-16T04:05:15.628Z,74.34
2022-11-16T04:08:07.422Z,74.55
2022-11-16T04:10:57.944Z,74.34
2022-11-16T04:13:47.000Z,74.34
2022-11-16T04:16:37.452Z,74.36
2022-11-16T04:19:27.968Z,74.49
2022-11-16T04:22:24.669Z,74.38
2022-11-16T04:25:03.125Z,73.94
2022-11-16T04:28:08.100Z,74.09
2022-11-16T04:30:59.833Z,74.06
2022-11-16T04:33:51.169Z,73.77
2022-11-16T04:36:42.277Z,73.96
2022-11-16T04:39:16.568Z,73.69
2022-11-16T04:42:06.994Z,74.04
2022-11-16T04:44:57.068Z,74.09
2022-11-16T04:47:29.959Z,74.04
2022-11-16T04:50:02.884Z,74.01
2022-11-16T04:52:35.684Z,73.47
2022-11-16T04:55:11.224Z,73.59
2022-11-16T04:57:44.130Z,73.52
2022-11-16T05:00:18.197Z,73.37
2022-11-16T05:02:51.416Z,73.59
2022-11-16T05:05:24.289Z,73.30
2022-11-16T05:07:57.465Z,73.32
2022-11-16T05:10:31.665Z,73.60
2022-11-16T05:13:04.569Z,73.51
2022-11-16T05:15:37.432Z,73.33
2022-11-16T05:18:10.284Z,73.59
2022-11-16T05:21:00.811Z,73.80
2022-11-16T05:23:51.421Z,73.30
2022-11-16T05:26:25.666Z,73.65
2022-11-16T05:28:58.853Z,73.54
2022-11-16T05:31:35.069Z,73.67
2022-11-16T05:34:17.239Z,73.75
2022-11-16T05:36:50.169Z,73.65
2022-11-16T05:39:23.543Z,74.11
2022-11-16T05:41:58.116Z,73.82
2022-11-16T05:44:31.026Z,73.45
2022-11-16T05:47:04.039Z,73.49
2022-11-16T05:49:37.299Z,73.67
2022-11-16T05:52:10.173Z,74.17
2022-11-16T05:54:43.123Z,74.17
2022-11-16T05:57:18.341Z,73.62
2022-11-16T05:59:51.481Z,73.55
2022-11-16T06:02:24.317Z,73.68
2022-11-16T06:04:57.215Z,73.90
2022-11-16T06:10:20.824Z,73.50
2022-11-16T06:12:55.010Z,73.30
2022-11-16T06:15:28.278Z,73.42
2022-11-16T06:18:01.078Z,73.70
2022-11-16T06:20:34.260Z,73.07
2022-11-16T06:23:07.584Z,73.17
2022-11-16T06:25:41.152Z,73.58
2022-11-16T06:28:15.616Z,73.48
2022-11-16T06:30:49.547Z,73.27
2022-11-16T06:33:26.200Z,73.57
2022-11-16T06:36:00.549Z,73.32
2022-11-16T06:38:33.873Z,73.10
2022-11-16T06:41:07.044Z,72.55
2022-11-16T06:43:41.291Z,72.65
2022-11-16T06:46:14.206Z,72.90
2022-11-16T06:48:47.036Z,72.94
2022-11-16T06:51:19.924Z,72.91
2022-11-16T06:53:52.723Z,73.13
2022-11-16T06:56:25.601Z,73.66
2022-11-16T06:58:59.899Z,73.30
2022-11-16T07:01:32.971Z,73.63
2022-11-16T07:04:05.799Z,74.51
2022-11-16T07:06:39.515Z,74.55
2022-11-16T07:09:12.561Z,74.78
2022-11-16T07:11:45.987Z,75.12
2022-11-16T07:14:20.523Z,75.15
2022-11-16T07:17:05.184Z,75.43
2022-11-16T07:19:43.477Z,75.92
2022-11-16T07:22:16.355Z,75.62
2022-11-16T07:24:51.345Z,75.33
2022-11-16T07:27:29.645Z,75.72
2022-11-16T07:30:05.612Z,75.65
2022-11-16T07:32:40.018Z,75.25
2022-11-16T07:35:13.063Z,75.31
2022-11-16T07:37:45.921Z,74.86
2022-11-16T07:40:18.773Z,74.80
2022-11-16T07:42:51.719Z,74.89
2022-11-16T07:45:26.031Z,74.75
2022-11-16T07:47:59.007Z,74.27
2022-11-16T07:50:31.813Z,74.31
2022-11-16T07:53:04.708Z,74.00
2022-11-16T07:55:37.580Z,73.97
2022-11-16T07:58:10.591Z,73.91
2022-11-16T08:00:44.749Z,73.85
2022-11-16T08:03:23.404Z,73.72
2022-11-16T08:06:02.839Z,73.35
2022-11-16T08:08:36.239Z,72.99
2022-11-16T08:11:11.418Z,72.56
2022-11-16T08:13:44.410Z,72.77
2022-11-16T08:16:20.436Z,72.54
2022-11-16T08:18:53.322Z,72.67
2022-11-16T08:21:26.194Z,73.00
2022-11-16T08:23:59.406Z,72.93
2022-11-16T08:26:32.777Z,72.78
2022-11-16T08:29:05.601Z,73.17
2022-11-16T08:31:39.879Z,73.45
2022-11-16T08:34:12.801Z,73.43
2022-11-16T08:36:45.608Z,74.14
2022-11-16T08:42:09.222Z,74.40
2022-11-16T08:44:42.022Z,74.35
2022-11-16T08:47:16.299Z,74.55
2022-11-16T08:49:49.807Z,75.26
2022-11-16T08:52:22.700Z,75.18
2022-11-16T08:54:55.693Z,74.80
2022-11-16T08:57:28.486Z,74.75
2022-11-16T09:00:01.423Z,74.16
2022-11-16T09:02:36.040Z,73.76
2022-11-16T09:05:12.000Z,73.57
2022-11-16T09:07:46.196Z,73.37
2022-11-16T09:10:23.051Z,73.14
2022-11-16T09:12:57.808Z,73.39
2022-11-16T09:15:33.486Z,73.27
2022-11-16T09:18:09.620Z,73.43
2022-11-16T09:20:46.563Z,73.38
2022-11-16T09:23:24.862Z,73.40
2022-11-16T09:26:02.107Z,73.07
2022-11-16T09:28:37.338Z,73.13
2022-11-16T09:31:23.749Z,73.31
2022-11-16T09:34:04.374Z,73.84
2022-11-16T09:36:37.243Z,74.70
2022-11-16T09:39:29.585Z,74.67
2022-11-16T09:42:18.418Z,74.64
2022-11-16T09:45:04.677Z,74.25
2022-11-16T09:47:44.378Z,74.08
2022-11-16T09:50:32.742Z,73.29
2022-11-16T09:53:22.050Z,73.04
2022-11-16T09:55:59.983Z,72.89
2022-11-16T09:58:40.225Z,72.13
2022-11-16T10:01:23.748Z,71.23
2022-11-16T10:04:02.805Z,71.71
2022-11-16T10:06:54.677Z,70.97
2022-11-16T10:09:28.347Z,72.17
2022-11-16T10:12:12.422Z,70.26
2022-11-16T10:15:04.887Z,69.06
2022-11-16T10:18:03.397Z,69.42
2022-11-16T10:20:53.845Z,68.96
2022-11-16T10:23:39.170Z,69.07
2022-11-16T10:26:25.166Z,69.02
2022-11-16T10:29:16.071Z,69.11
2022-11-16T10:32:03.117Z,68.29
2022-11-16T10:34:46.528Z,68.38
2022-11-16T10:37:20.318Z,68.66
2022-11-16T10:39:54.497Z,67.98
2022-11-16T10:42:36.116Z,67.12
2022-11-16T10:45:20.598Z,66.64
2022-11-16T10:47:58.551Z,66.19
2022-11-16T10:50:36.337Z,65.97
2022-11-16T10:53:15.633Z,65.51
2022-11-16T10:56:02.238Z,65.68
2022-11-16T10:58:52.352Z,65.08
2022-11-16T11:01:39.041Z,65.04
2022-11-16T11:04:18.410Z,64.71
2022-11-16T11:06:55.699Z,64.55
2022-11-16T11:09:32.504Z,64.99
2022-11-16T11:12:33.033Z,64.51
2022-11-16T11:15:21.316Z,64.53
2022-11-16T11:18:19.131Z,64.87
2022-11-16T11:21:05.523Z,65.25
2022-11-16T11:23:43.946Z,64.18
2022-11-16T11:26:40.287Z,64.91
2022-11-16T11:29:26.261Z,64.44
2022-11-16T11:32:05.793Z,65.37
2022-11-16T11:34:42.793Z,65.99
2022-11-16T11:37:32.530Z,65.12
2022-11-16T11:40:08.124Z,65.15
2022-11-16T11:42:52.424Z,64.77
2022-11-16T11:45:34.604Z,65.13
2022-11-16T11:48:22.778Z,64.68
2022-11-16T11:51:01.294Z,64.92
2022-11-16T11:53:55.688Z,64.74
2022-11-16T11:56:31.883Z,64.92
2022-11-16T11:59:06.179Z,65.01
2022-11-16T12:02:10.899Z,64.78
2022-11-16T12:05:21.560Z,64.88
2022-11-16T12:08:12.558Z,65.88
2022-11-16T12:10:51.150Z,65.25
2022-11-16T12:13:40.836Z,64.91
2022-11-16T12:16:23.554Z,64.71
2022-11-16T12:19:14.255Z,64.86
2022-11-16T12:22:04.322Z,64.19
2022-11-16T12:24:50.282Z,64.32
2022-11-16T12:27:32.998Z,64.60
2022-11-16T12:30:12.724Z,64.43
2022-11-16T12:33:12.455Z,64.45
2022-11-16T12:36:10.027Z,64.65
2022-11-16T12:38:56.535Z,64.41
2022-11-16T12:41:51.250Z,64.16
2022-11-16T12:44:34.849Z,64.14
2022-11-16T12:47:17.917Z,64.55
2022-11-16T12:50:15.113Z,64.13
2022-11-16T12:53:03.947Z,63.98
2022-11-16T12:55:47.464Z,64.07
2022-11-16T12:58:33.757Z,62.94
2022-11-16T13:01:13.387Z,63.00
2022-11-16T13:03:52.224Z,62.50
2022-11-16T13:06:31.143Z,62.01
2022-11-16T13:09:12.265Z,61.37
2022-11-16T13:11:49.977Z,61.50
2022-11-16T13:14:26.799Z,61.52
2022-11-16T13:17:03.035Z,61.55
2022-11-16T13:19:43.458Z,61.61
2022-11-16T13:22:21.977Z,61.80
2022-11-16T13:25:01.296Z,62.17
2022-11-16T13:27:42.793Z,62.10
2022-11-16T13:30:19.633Z,62.57
2022-11-16T13:33:15.111Z,62.52
2022-11-16T13:35:47.932Z,62.83
2022-11-16T13:38:53.440Z,62.67
2022-11-16T13:41:35.672Z,62.63
2022-11-16T13:44:15.685Z,62.90
2022-11-16T13:46:56.250Z,63.12
2022-11-16T13:49:34.384Z,62.92
2022-11-16T13:52:23.265Z,63.27
2022-11-16T13:55:11.729Z,63.25
2022-11-16T13:57:52.522Z,63.35
2022-11-16T14:00:30.468Z,63.53
2022-11-16T14:03:45.863Z,63.91
2022-11-16T14:07:03.725Z,63.80
2022-11-16T14:09:46.595Z,64.14
2022-11-16T14:12:56.446Z,64.21
2022-11-16T14:15:36.648Z,64.32
2022-11-16T14:18:35.180Z,64.38
2022-11-16T14:21:16.435Z,64.85
2022-11-16T14:24:05.568Z,64.70
2022-11-16T14:26:59.489Z,64.97
2022-11-16T14:29:58.973Z,65.21
2022-11-16T14:32:42.428Z,65.24
2022-11-16T14:35:29.393Z,65.23
2022-11-16T14:38:04.991Z,65.59
2022-11-16T14:40:54.868Z,64.99
2022-11-16T14:43:35.479Z,65.41
2022-11-16T14:46:26.547Z,64.98
2022-11-16T14:49:03.683Z,65.44
2022-11-16T14:51:52.914Z,65.61
2022-11-16T14:54:33.627Z,65.57
2022-11-16T14:57:08.833Z,66.26
2022-11-16T14:59:41.682Z,66.58
2022-11-16T15:02:21.526Z,66.76
2022-11-16T15:04:56.175Z,66.65
2022-11-16T15:07:30.912Z,67.04
2022-11-16T15:10:07.430Z,67.05
2022-11-16T15:12:43.290Z,67.35
2022-11-16T15:15:20.237Z,67.21
2022-11-16T15:18:07.220Z,67.32
2022-11-16T15:20:49.443Z,67.32
2022-11-16T15:23:27.648Z,67.36
2022-11-16T15:26:05.386Z,67.45
2022-11-16T15:28:49.792Z,67.40
2022-11-16T15:31:56.144Z,67.24
2022-11-16T15:42:03.954Z,67.70
2022-11-16T15:44:47.114Z,67.78
2022-11-16T15:47:47.050Z,67.73
2022-11-16T15:50:23.195Z,68.57
2022-11-16T15:52:57.162Z,68.49
2022-11-16T15:55:34.952Z,68.70
2022-11-16T15:58:16.533Z,69.13
2022-11-16T16:00:50.168Z,68.73
2022-11-16T16:03:25.181Z,68.69
2022-11-16T16:05:58.245Z,69.10
2022-11-16T16:08:36.706Z,69.56
2022-11-16T16:11:27.887Z,69.27
2022-11-16T16:14:04.150Z,69.52
2022-11-16T16:16:38.209Z,69.21
2022-11-16T16:19:36.215Z,69.29
2022-11-16T16:22:25.816Z,69.42
2022-11-16T16:25:01.506Z,69.01
2022-11-16T16:27:42.081Z,69.69
2022-11-16T16:30:25.908Z,69.68
2022-11-16T16:33:02.649Z,69.62
2022-11-16T16:35:41.057Z,69.47
2022-11-16T16:38:17.046Z,69.88
2022-11-16T16:40:50.281Z,69.37
2022-11-16T16:43:23.353Z,69.89
2022-11-16T16:45:58.151Z,69.53
2022-11-16T16:48:31.239Z,69.42
2022-11-16T16:51:04.326Z,69.55
2022-11-16T16:53:37.506Z,69.38
2022-11-16T16:56:20.027Z,70.14
2022-11-16T16:59:02.562Z,70.52
2022-11-16T17:01:37.879Z,70.31
2022-11-16T17:04:11.946Z,70.38
2022-11-16T17:06:46.672Z,70.26
2022-11-16T17:09:21.755Z,70.58
2022-11-16T17:11:58.862Z,69.92
2022-11-16T17:14:33.022Z,70.74
2022-11-16T17:17:07.950Z,70.59
2022-11-16T17:19:42.238Z,70.15
2022-11-16T17:22:15.903Z,70.51
2022-11-16T17:24:50.955Z,70.33
2022-11-16T17:27:25.779Z,70.24
2022-11-16T17:30:00.752Z,70.40
2022-11-16T17:32:37.402Z,70.89
2022-11-16T17:35:12.921Z,70.60
2022-11-16T17:37:48.505Z,70.23
2022-11-16T17:40:25.898Z,70.81
2022-11-16T17:43:00.638Z,71.13
2022-11-16T17:45:38.539Z,70.36
2022-11-16T17:48:18.154Z,69.97
2022-11-16T17:51:02.304Z,70.32
2022-11-16T17:53:36.957Z,69.86
2022-11-16T17:56:14.317Z,70.13
2022-11-16T17:58:54.208Z,70.16
2022-11-16T18:01:28.735Z,70.66
2022-11-16T18:04:13.302Z,70.18
2022-11-16T18:06:49.531Z,70.30
2022-11-16T18:09:26.219Z,70.38
2022-11-16T18:12:02.107Z,70.97
2022-11-16T18:14:39.878Z,71.39
2022-11-16T18:17:12.903Z,70.94
2022-11-16T18:19:47.496Z,71.07
2022-11-16T18:22:23.451Z,71.33
2022-11-16T18:24:56.369Z,71.27
2022-11-16T18:27:29.450Z,71.16
2022-11-16T18:30:04.008Z,71.23
2022-11-16T18:32:36.949Z,71.10
2022-11-16T18:35:13.833Z,70.87
2022-11-16T18:37:47.020Z,71.04
2022-11-16T18:40:20.260Z,71.15
2022-11-16T18:42:54.900Z,70.84
2022-11-16T18:45:28.087Z,70.89
2022-11-16T18:48:06.985Z,70.84
2022-11-16T18:51:26.387Z,70.24
2022-11-16T18:57:03.438Z,70.87
2022-11-16T18:59:36.889Z,70.85
2022-11-16T19:02:14.919Z,71.08
2022-11-16T19:04:51.248Z,70.87
2022-11-16T19:07:26.829Z,70.82
2022-11-16T19:10:01.386Z,70.62
2022-11-16T19:12:34.965Z,70.94
2022-11-16T19:15:08.741Z,70.78
2022-11-16T19:18:19.311Z,71.04
2022-11-16T19:20:46.368Z,70.62
2022-11-16T19:23:21.876Z,71.25
2022-11-16T19:26:05.683Z,71.11
2022-11-16T19:28:43.083Z,70.77
2022-11-16T19:31:28.789Z,71.01
2022-11-16T19:34:10.162Z,70.94
2022-11-16T19:36:43.153Z,71.09
2022-11-16T19:39:28.325Z,70.65
2022-11-16T19:42:12.454Z,71.18
2022-11-16T19:45:12.284Z,71.09
2022-11-16T19:47:45.775Z,71.04
2022-11-16T19:50:19.349Z,71.28
2022-11-16T19:53:01.000Z,71.28
2022-11-16T19:55:34.117Z,71.41
2022-11-16T19:58:08.607Z,71.58
2022-11-16T20:00:41.843Z,71.96
2022-11-16T20:03:16.652Z,71.79
2022-11-16T20:05:52.540Z,71.89
2022-11-16T20:08:25.650Z,72.13
2022-11-16T20:10:59.762Z,72.17
2022-11-16T20:13:34.434Z,72.12
2022-11-16T20:16:09.724Z,72.20
2022-11-16T20:18:44.532Z,71.89
2022-11-16T20:21:22.755Z,71.96
2022-11-16T20:24:01.543Z,71.85
2022-11-16T20:26:41.584Z,71.69
2022-11-16T20:29:19.597Z,71.95
2022-11-16T20:31:52.625Z,72.14
2022-11-16T20:34:25.594Z,71.94
2022-11-16T20:36:58.606Z,72.05
2022-11-16T20:39:31.584Z,72.05
2022-11-16T20:42:05.421Z,72.15
2022-11-16T20:44:40.067Z,71.95
2022-11-16T20:47:13.208Z,72.11
2022-11-16T20:49:46.275Z,72.20
2022-11-16T20:52:19.234Z,72.18
2022-11-16T20:54:55.963Z,72.13
2022-11-16T20:57:33.854Z,72.23
2022-11-16T21:00:12.190Z,72.78
2022-11-16T21:02:48.291Z,72.29
2022-11-16T21:05:21.333Z,72.64
2022-11-16T21:07:54.426Z,72.79
2022-11-16T21:10:27.749Z,72.65
2022-11-16T21:13:18.352Z,72.81
2022-11-16T21:16:09.206Z,72.78
2022-11-16T21:18:45.316Z,73.13
2022-11-16T21:21:18.313Z,73.17
2022-11-16T21:23:53.314Z,73.06
2022-11-16T21:26:27.751Z,73.04
2022-11-16T21:29:02.487Z,72.94
2022-11-16T21:31:38.711Z,73.08
2022-11-16T21:34:11.677Z,72.82
2022-11-16T21:36:50.286Z,72.66
2022-11-16T21:39:23.363Z,72.77
2022-11-16T21:41:56.766Z,72.78
2022-11-16T21:44:41.915Z,72.62
2022-11-16T21:47:19.361Z,72.33
2022-11-16T21:50:29.663Z,72.37
2022-11-16T21:52:49.246Z,71.85
2022-11-16T21:55:25.058Z,71.93
2022-11-16T21:57:58.559Z,72.18
2022-11-16T22:00:31.595Z,71.91
2022-11-16T22:03:06.059Z,71.67
2022-11-16T22:05:56.525Z,71.58
2022-11-16T22:08:29.685Z,71.65
2022-11-16T22:11:03.051Z,71.63
2022-11-16T22:13:36.477Z,71.43
2022-11-16T22:16:11.561Z,70.96
2022-11-16T22:18:46.397Z,71.44
2022-11-16T22:21:19.727Z,71.30
2022-11-16T22:23:52.725Z,70.87
2022-11-16T22:26:25.808Z,71.31
2022-11-16T22:28:59.647Z,71.14
2022-11-16T22:31:35.464Z,70.61
2022-11-16T22:34:09.868Z,71.03
2022-11-16T22:36:42.784Z,71.49
2022-11-16T22:39:15.812Z,71.23
2022-11-16T22:41:48.746Z,71.19
2022-11-16T22:44:22.300Z,71.11
2022-11-16T22:46:55.302Z,71.18
2022-11-16T22:49:29.978Z,70.82
2022-11-16T22:52:03.151Z,71.46
2022-11-16T22:54:38.916Z,71.23
2022-11-16T22:57:11.835Z,71.30
2022-11-16T22:59:44.825Z,71.50
2022-11-16T23:02:17.995Z,71.96
2022-11-16T23:04:52.371Z,71.58
2022-11-16T23:07:25.427Z,71.27
2022-11-16T23:09:58.560Z,71.30
2022-11-16T23:12:49.020Z,71.14
2022-11-16T23:15:44.656Z,71.31
2022-11-16T23:18:19.636Z,70.83
2022-11-16T23:21:11.375Z,70.79
2022-11-16T23:24:01.671Z,71.22
2022-11-16T23:26:51.908Z,71.01
2022-11-16T23:29:25.002Z,71.49
2022-11-16T23:31:57.996Z,70.92
2022-11-16T23:34:30.937Z,70.96
2022-11-16T23:37:06.734Z,70.73
2022-11-16T23:39:39.673Z,70.60
2022-11-16T23:42:30.519Z,70.75
2022-11-16T23:45:04.016Z,71.16
2022-11-16T23:47:37.109Z,71.27
2022-11-16T23:50:10.698Z,71.15
2022-11-16T23:52:45.739Z,71.16
2022-11-16T23:55:18.912Z,71.25
2022-11-16T23:57:52.546Z,71.04
